sensor_id;sensor_type;location;lat;lon;timestamp;temperature;humidity
2010;DHT22;1008;47.404;8.502;2022-10-16T00:01:50;16.20;99.90
2010;DHT22;1008;47.404;8.502;2022-10-16T00:04:17;16.20;99.90
2010;DHT22;1008;47.404;8.502;2022-10-16T00:06:44;16.20;99.90
2010;DHT22;1008;47.404;8.502;2022-10-16T00:09:11;16.10;99.90
2010;DHT22;1008;47.404;8.502;2022-10-16T00:11:39;16.00;99.90
2010;DHT22;1008;47.404;8.502;2022-10-16T00:14:08;16.10;99.90
2010;DHT22;1008;47.404;8.502;2022-10-16T00:16:37;15.90;99.90
2010;DHT22;1008;47.404;8.502;2022-10-16T00:19:04;15.90;99.90
2010;DHT22;1008;47.404;8.502;2022-10-16T00:21:31;15.90;99.90
2010;DHT22;1008;47.404;8.502;2022-10-16T00:24:00;15.90;99.90
2010;DHT22;1008;47.404;8.502;2022-10-16T00:26:28;16.00;99.90
2010;DHT22;1008;47.404;8.502;2022-10-16T00:28:55;16.00;99.90
2010;DHT22;1008;47.404;8.502;2022-10-16T00:31:23;16.10;99.90
2010;DHT22;1008;47.404;8.502;2022-10-16T00:33:51;16.10;99.90
2010;DHT22;1008;47.404;8.502;2022-10-16T00:36:20;16.20;99.90
2010;DHT22;1008;47.404;8.502;2022-10-16T00:38:49;16.20;99.90
2010;DHT22;1008;47.404;8.502;2022-10-16T00:41:18;16.10;99.90
2010;DHT22;1008;47.404;8.502;2022-10-16T00:43:46;16.10;99.90
2010;DHT22;1008;47.404;8.502;2022-10-16T00:46:16;16.10;99.90
2010;DHT22;1008;47.404;8.502;2022-10-16T00:48:48;16.20;99.90
2010;DHT22;1008;47.404;8.502;2022-10-16T00:51:18;16.10;99.90
2010;DHT22;1008;47.404;8.502;2022-10-16T00:53:46;16.20;99.90
2010;DHT22;1008;47.404;8.502;2022-10-16T00:56:13;16.20;99.90
2010;DHT22;1008;47.404;8.502;2022-10-16T00:58:39;16.20;99.90
2010;DHT22;1008;47.404;8.502;2022-10-16T01:01:06;16.10;99.90
2010;DHT22;1008;47.404;8.502;2022-10-16T01:03:36;16.10;99.90
2010;DHT22;1008;47.404;8.502;2022-10-16T01:06:12;16.00;99.90
2010;DHT22;1008;47.404;8.502;2022-10-16T01:08:52;16.10;99.90
2010;DHT22;1008;47.404;8.502;2022-10-16T01:11:24;15.90;99.90
2010;DHT22;1008;47.404;8.502;2022-10-16T01:13:54;16.00;99.90
2010;DHT22;1008;47.404;8.502;2022-10-16T01:16:29;15.90;99.90
2010;DHT22;1008;47.404;8.502;2022-10-16T01:19:04;16.00;99.90
2010;DHT22;1008;47.404;8.502;2022-10-16T01:21:35;16.00;99.90
2010;DHT22;1008;47.404;8.502;2022-10-16T01:24:19;16.00;99.90
2010;DHT22;1008;47.404;8.502;2022-10-16T01:27:11;16.00;99.90
2010;DHT22;1008;47.404;8.502;2022-10-16T01:29:44;16.00;99.90
2010;DHT22;1008;47.404;8.502;2022-10-16T01:32:19;15.90;99.90
2010;DHT22;1008;47.404;8.502;2022-10-16T01:34:51;15.90;99.90
2010;DHT22;1008;47.404;8.502;2022-10-16T01:37:29;16.00;99.90
2010;DHT22;1008;47.404;8.502;2022-10-16T01:39:59;16.00;99.90
2010;DHT22;1008;47.404;8.502;2022-10-16T01:42:31;16.00;99.90
2010;DHT22;1008;47.404;8.502;2022-10-16T01:44:59;16.20;99.90
2010;DHT22;1008;47.404;8.502;2022-10-16T01:47:27;16.00;99.90
2010;DHT22;1008;47.404;8.502;2022-10-16T01:49:58;15.90;99.90
2010;DHT22;1008;47.404;8.502;2022-10-16T01:52:26;15.90;99.90
2010;DHT22;1008;47.404;8.502;2022-10-16T01:54:55;15.90;99.90
2010;DHT22;1008;47.404;8.502;2022-10-16T01:57:24;16.00;99.90
2010;DHT22;1008;47.404;8.502;2022-10-16T01:59:56;15.80;99.90
2010;DHT22;1008;47.404;8.502;2022-10-16T02:02:27;15.80;99.90
2010;DHT22;1008;47.404;8.502;2022-10-16T02:04:58;15.80;99.90
2010;DHT22;1008;47.404;8.502;2022-10-16T02:07:26;15.80;99.90
2010;DHT22;1008;47.404;8.502;2022-10-16T02:09:54;15.80;99.90
2010;DHT22;1008;47.404;8.502;2022-10-16T02:12:25;15.80;99.90
2010;DHT22;1008;47.404;8.502;2022-10-16T02:14:54;15.90;99.90
2010;DHT22;1008;47.404;8.502;2022-10-16T02:17:21;15.80;99.90
2010;DHT22;1008;47.404;8.502;2022-10-16T02:19:50;15.80;99.90
2010;DHT22;1008;47.404;8.502;2022-10-16T02:22:21;15.80;99.90
2010;DHT22;1008;47.404;8.502;2022-10-16T02:24:53;15.80;99.90
2010;DHT22;1008;47.404;8.502;2022-10-16T02:27:23;15.90;99.90
2010;DHT22;1008;47.404;8.502;2022-10-16T02:29:56;15.80;99.90
2010;DHT22;1008;47.404;8.502;2022-10-16T02:32:30;15.80;99.90
2010;DHT22;1008;47.404;8.502;2022-10-16T02:34:58;15.70;99.90
2010;DHT22;1008;47.404;8.502;2022-10-16T02:37:27;15.80;99.90
2010;DHT22;1008;47.404;8.502;2022-10-16T02:39:55;15.60;99.90
2010;DHT22;1008;47.404;8.502;2022-10-16T02:42:28;15.60;99.90
2010;DHT22;1008;47.404;8.502;2022-10-16T02:44:56;15.70;99.90
2010;DHT22;1008;47.404;8.502;2022-10-16T02:47:23;15.70;99.90
2010;DHT22;1008;47.404;8.502;2022-10-16T02:49:49;15.80;99.90
2010;DHT22;1008;47.404;8.502;2022-10-16T02:52:16;15.90;99.90
2010;DHT22;1008;47.404;8.502;2022-10-16T02:54:43;15.80;99.90
2010;DHT22;1008;47.404;8.502;2022-10-16T02:57:10;15.80;99.90
2010;DHT22;1008;47.404;8.502;2022-10-16T02:59:37;15.80;99.90
2010;DHT22;1008;47.404;8.502;2022-10-16T03:02:05;15.60;99.90
2010;DHT22;1008;47.404;8.502;2022-10-16T03:04:32;15.60;99.90
2010;DHT22;1008;47.404;8.502;2022-10-16T03:06:58;15.50;99.90
2010;DHT22;1008;47.404;8.502;2022-10-16T03:09:25;15.50;99.90
2010;DHT22;1008;47.404;8.502;2022-10-16T03:11:52;15.50;99.90
2010;DHT22;1008;47.404;8.502;2022-10-16T03:14:19;15.60;99.90
2010;DHT22;1008;47.404;8.502;2022-10-16T03:16:45;15.50;99.90
2010;DHT22;1008;47.404;8.502;2022-10-16T03:19:15;15.60;99.90
2010;DHT22;1008;47.404;8.502;2022-10-16T03:21:42;15.50;99.90
2010;DHT22;1008;47.404;8.502;2022-10-16T03:24:08;15.50;99.90
2010;DHT22;1008;47.404;8.502;2022-10-16T03:26:35;15.50;99.90
2010;DHT22;1008;47.404;8.502;2022-10-16T03:29:02;15.30;99.90
2010;DHT22;1008;47.404;8.502;2022-10-16T03:31:29;15.30;99.90
2010;DHT22;1008;47.404;8.502;2022-10-16T03:33:56;15.40;99.90
2010;DHT22;1008;47.404;8.502;2022-10-16T03:36:24;15.30;99.90
2010;DHT22;1008;47.404;8.502;2022-10-16T03:38:51;15.30;99.90
2010;DHT22;1008;47.404;8.502;2022-10-16T03:41:18;15.30;99.90
2010;DHT22;1008;47.404;8.502;2022-10-16T03:43:44;15.30;99.90
2010;DHT22;1008;47.404;8.502;2022-10-16T03:46:11;15.30;99.90
2010;DHT22;1008;47.404;8.502;2022-10-16T03:48:38;15.30;99.90
2010;DHT22;1008;47.404;8.502;2022-10-16T03:51:05;15.40;99.90
2010;DHT22;1008;47.404;8.502;2022-10-16T03:53:33;15.30;99.90
2010;DHT22;1008;47.404;8.502;2022-10-16T03:56:00;15.40;99.90
2010;DHT22;1008;47.404;8.502;2022-10-16T03:58:26;15.40;99.90
2010;DHT22;1008;47.404;8.502;2022-10-16T04:00:53;15.40;99.90
2010;DHT22;1008;47.404;8.502;2022-10-16T04:03:20;15.50;99.90
2010;DHT22;1008;47.404;8.502;2022-10-16T04:05:47;15.40;99.90
2010;DHT22;1008;47.404;8.502;2022-10-16T04:08:13;15.40;99.90
2010;DHT22;1008;47.404;8.502;2022-10-16T04:10:43;15.40;99.90
2010;DHT22;1008;47.404;8.502;2022-10-16T04:13:10;15.50;99.90
2010;DHT22;1008;47.404;8.502;2022-10-16T04:15:37;15.40;99.90
2010;DHT22;1008;47.404;8.502;2022-10-16T04:18:04;15.30;99.90
2010;DHT22;1008;47.404;8.502;2022-10-16T04:20:32;15.40;99.90
2010;DHT22;1008;47.404;8.502;2022-10-16T04:22:58;15.40;99.90
2010;DHT22;1008;47.404;8.502;2022-10-16T04:25:25;15.40;99.90
2010;DHT22;1008;47.404;8.502;2022-10-16T04:27:54;15.40;99.90
2010;DHT22;1008;47.404;8.502;2022-10-16T04:30:22;15.40;99.90
2010;DHT22;1008;47.404;8.502;2022-10-16T04:32:49;15.40;99.90
2010;DHT22;1008;47.404;8.502;2022-10-16T04:35:16;15.40;99.90
2010;DHT22;1008;47.404;8.502;2022-10-16T04:37:43;15.20;99.90
2010;DHT22;1008;47.404;8.502;2022-10-16T04:40:10;15.20;99.90
2010;DHT22;1008;47.404;8.502;2022-10-16T04:42:37;15.10;99.90
2010;DHT22;1008;47.404;8.502;2022-10-16T04:45:06;15.60;99.90
2010;DHT22;1008;47.404;8.502;2022-10-16T04:47:33;15.30;99.90
2010;DHT22;1008;47.404;8.502;2022-10-16T04:50:00;15.20;99.90
2010;DHT22;1008;47.404;8.502;2022-10-16T04:52:28;15.20;99.90
2010;DHT22;1008;47.404;8.502;2022-10-16T04:54:57;15.10;99.90
2010;DHT22;1008;47.404;8.502;2022-10-16T04:57:26;15.20;99.90
2010;DHT22;1008;47.404;8.502;2022-10-16T04:59:53;15.30;99.90
2010;DHT22;1008;47.404;8.502;2022-10-16T05:02:21;15.30;99.90
2010;DHT22;1008;47.404;8.502;2022-10-16T05:04:48;15.20;99.90
2010;DHT22;1008;47.404;8.502;2022-10-16T05:07:15;15.30;99.90
2010;DHT22;1008;47.404;8.502;2022-10-16T05:09:41;15.30;99.90
2010;DHT22;1008;47.404;8.502;2022-10-16T05:12:08;15.30;99.90
2010;DHT22;1008;47.404;8.502;2022-10-16T05:14:35;15.30;99.90
2010;DHT22;1008;47.404;8.502;2022-10-16T05:17:02;15.40;99.90
2010;DHT22;1008;47.404;8.502;2022-10-16T05:19:30;15.40;99.90
2010;DHT22;1008;47.404;8.502;2022-10-16T05:21:57;15.30;99.90
2010;DHT22;1008;47.404;8.502;2022-10-16T05:24:23;15.30;99.90
2010;DHT22;1008;47.404;8.502;2022-10-16T05:26:50;15.30;99.90
2010;DHT22;1008;47.404;8.502;2022-10-16T05:29:17;15.40;99.90
2010;DHT22;1008;47.404;8.502;2022-10-16T05:31:44;15.40;99.90
2010;DHT22;1008;47.404;8.502;2022-10-16T05:34:11;15.40;99.90
2010;DHT22;1008;47.404;8.502;2022-10-16T05:36:39;15.40;99.90
2010;DHT22;1008;47.404;8.502;2022-10-16T05:39:06;15.50;99.90
2010;DHT22;1008;47.404;8.502;2022-10-16T05:41:32;15.50;99.90
2010;DHT22;1008;47.404;8.502;2022-10-16T05:43:59;15.70;99.90
2010;DHT22;1008;47.404;8.502;2022-10-16T05:46:26;15.60;99.90
2010;DHT22;1008;47.404;8.502;2022-10-16T05:48:53;15.70;99.90
2010;DHT22;1008;47.404;8.502;2022-10-16T05:51:20;15.80;99.90
2010;DHT22;1008;47.404;8.502;2022-10-16T05:53:48;15.90;99.90
2010;DHT22;1008;47.404;8.502;2022-10-16T05:56:15;16.00;99.90
2010;DHT22;1008;47.404;8.502;2022-10-16T05:58:42;15.90;99.90
2010;DHT22;1008;47.404;8.502;2022-10-16T06:01:11;16.10;99.90
2010;DHT22;1008;47.404;8.502;2022-10-16T06:03:38;15.90;99.90
2010;DHT22;1008;47.404;8.502;2022-10-16T06:06:09;16.20;99.90
2010;DHT22;1008;47.404;8.502;2022-10-16T06:08:36;16.10;99.90
2010;DHT22;1008;47.404;8.502;2022-10-16T06:11:06;16.10;99.90
2010;DHT22;1008;47.404;8.502;2022-10-16T06:13:33;16.00;99.90
2010;DHT22;1008;47.404;8.502;2022-10-16T06:16:01;16.00;99.90
2010;DHT22;1008;47.404;8.502;2022-10-16T06:18:31;15.90;99.90
2010;DHT22;1008;47.404;8.502;2022-10-16T06:20:58;16.00;99.90
2010;DHT22;1008;47.404;8.502;2022-10-16T06:23:25;16.00;99.90
2010;DHT22;1008;47.404;8.502;2022-10-16T06:25:52;16.00;99.90
2010;DHT22;1008;47.404;8.502;2022-10-16T06:28:20;16.00;99.90
2010;DHT22;1008;47.404;8.502;2022-10-16T06:30:47;16.10;99.90
2010;DHT22;1008;47.404;8.502;2022-10-16T06:33:13;16.00;99.90
2010;DHT22;1008;47.404;8.502;2022-10-16T06:35:43;16.00;99.90
2010;DHT22;1008;47.404;8.502;2022-10-16T06:38:09;16.10;99.90
2010;DHT22;1008;47.404;8.502;2022-10-16T06:40:36;16.20;99.90
2010;DHT22;1008;47.404;8.502;2022-10-16T06:43:03;16.30;99.90
2010;DHT22;1008;47.404;8.502;2022-10-16T06:45:33;16.30;99.90
2010;DHT22;1008;47.404;8.502;2022-10-16T06:48:00;16.40;99.90
2010;DHT22;1008;47.404;8.502;2022-10-16T06:50:27;16.20;99.90
2010;DHT22;1008;47.404;8.502;2022-10-16T06:52:53;16.30;99.90
2010;DHT22;1008;47.404;8.502;2022-10-16T06:55:20;16.20;99.90
2010;DHT22;1008;47.404;8.502;2022-10-16T06:57:48;16.20;99.90
2010;DHT22;1008;47.404;8.502;2022-10-16T07:00:15;16.20;99.90
2010;DHT22;1008;47.404;8.502;2022-10-16T07:02:43;16.20;99.90
2010;DHT22;1008;47.404;8.502;2022-10-16T07:05:10;16.30;99.90
2010;DHT22;1008;47.404;8.502;2022-10-16T07:07:36;16.30;99.90
2010;DHT22;1008;47.404;8.502;2022-10-16T07:10:04;16.40;99.90
2010;DHT22;1008;47.404;8.502;2022-10-16T07:12:31;16.30;99.90
2010;DHT22;1008;47.404;8.502;2022-10-16T07:14:57;16.30;99.90
2010;DHT22;1008;47.404;8.502;2022-10-16T07:17:24;16.50;99.90
2010;DHT22;1008;47.404;8.502;2022-10-16T07:19:52;16.10;99.90
2010;DHT22;1008;47.404;8.502;2022-10-16T07:22:21;16.10;99.90
2010;DHT22;1008;47.404;8.502;2022-10-16T07:24:47;16.10;99.90
2010;DHT22;1008;47.404;8.502;2022-10-16T07:27:14;16.30;99.90
2010;DHT22;1008;47.404;8.502;2022-10-16T07:29:42;16.10;99.90
2010;DHT22;1008;47.404;8.502;2022-10-16T07:32:08;16.00;99.90
2010;DHT22;1008;47.404;8.502;2022-10-16T07:34:35;16.10;99.90
2010;DHT22;1008;47.404;8.502;2022-10-16T07:37:03;16.10;99.90
2010;DHT22;1008;47.404;8.502;2022-10-16T07:39:30;16.00;99.90
2010;DHT22;1008;47.404;8.502;2022-10-16T07:41:57;16.20;99.90
2010;DHT22;1008;47.404;8.502;2022-10-16T07:44:23;16.20;99.90
2010;DHT22;1008;47.404;8.502;2022-10-16T07:46:50;16.60;99.90
2010;DHT22;1008;47.404;8.502;2022-10-16T07:49:17;16.80;99.90
2010;DHT22;1008;47.404;8.502;2022-10-16T07:51:44;17.10;99.90
2010;DHT22;1008;47.404;8.502;2022-10-16T07:54:12;17.10;99.90
2010;DHT22;1008;47.404;8.502;2022-10-16T07:56:38;17.30;99.90
2010;DHT22;1008;47.404;8.502;2022-10-16T07:59:05;17.60;99.90
2010;DHT22;1008;47.404;8.502;2022-10-16T08:01:32;17.80;99.90
2010;DHT22;1008;47.404;8.502;2022-10-16T08:03:59;18.10;99.90
2010;DHT22;1008;47.404;8.502;2022-10-16T08:06:25;18.00;99.90
2010;DHT22;1008;47.404;8.502;2022-10-16T08:08:52;18.10;99.90
2010;DHT22;1008;47.404;8.502;2022-10-16T08:11:20;18.20;99.90
2010;DHT22;1008;47.404;8.502;2022-10-16T08:13:48;18.50;99.90
2010;DHT22;1008;47.404;8.502;2022-10-16T08:16:15;18.40;99.90
2010;DHT22;1008;47.404;8.502;2022-10-16T08:18:42;18.30;99.90
2010;DHT22;1008;47.404;8.502;2022-10-16T08:21:13;18.40;99.90
2010;DHT22;1008;47.404;8.502;2022-10-16T08:23:40;18.30;99.90
2010;DHT22;1008;47.404;8.502;2022-10-16T08:26:08;18.50;99.90
2010;DHT22;1008;47.404;8.502;2022-10-16T08:28:36;18.50;99.90
2010;DHT22;1008;47.404;8.502;2022-10-16T08:31:08;18.60;99.90
2010;DHT22;1008;47.404;8.502;2022-10-16T08:33:35;18.70;99.90
2010;DHT22;1008;47.404;8.502;2022-10-16T08:36:03;18.90;99.90
2010;DHT22;1008;47.404;8.502;2022-10-16T08:38:30;19.10;99.90
2010;DHT22;1008;47.404;8.502;2022-10-16T08:41:17;19.20;99.90
2010;DHT22;1008;47.404;8.502;2022-10-16T08:44:10;19.60;99.90
2010;DHT22;1008;47.404;8.502;2022-10-16T08:46:51;19.80;99.90
2010;DHT22;1008;47.404;8.502;2022-10-16T08:49:22;19.90;99.90
2010;DHT22;1008;47.404;8.502;2022-10-16T08:51:50;19.80;99.90
2010;DHT22;1008;47.404;8.502;2022-10-16T08:54:29;19.80;99.90
2010;DHT22;1008;47.404;8.502;2022-10-16T08:57:07;19.90;99.90
2010;DHT22;1008;47.404;8.502;2022-10-16T08:59:36;19.90;99.90
2010;DHT22;1008;47.404;8.502;2022-10-16T09:02:18;19.80;99.90
2010;DHT22;1008;47.404;8.502;2022-10-16T09:08:00;20.60;99.90
2010;DHT22;1008;47.404;8.502;2022-10-16T09:10:38;20.70;99.90
2010;DHT22;1008;47.404;8.502;2022-10-16T09:13:16;21.20;99.90
2010;DHT22;1008;47.404;8.502;2022-10-16T09:15:49;21.50;99.90
2010;DHT22;1008;47.404;8.502;2022-10-16T09:18:23;21.90;99.90
2010;DHT22;1008;47.404;8.502;2022-10-16T09:20:57;22.10;99.90
2010;DHT22;1008;47.404;8.502;2022-10-16T09:23:27;22.40;99.90
2010;DHT22;1008;47.404;8.502;2022-10-16T09:25:55;22.40;99.90
2010;DHT22;1008;47.404;8.502;2022-10-16T09:28:23;22.30;99.90
2010;DHT22;1008;47.404;8.502;2022-10-16T09:30:52;22.10;99.90
2010;DHT22;1008;47.404;8.502;2022-10-16T09:33:22;22.30;99.90
2010;DHT22;1008;47.404;8.502;2022-10-16T09:35:52;22.10;99.90
2010;DHT22;1008;47.404;8.502;2022-10-16T09:38:25;21.80;99.90
2010;DHT22;1008;47.404;8.502;2022-10-16T09:40:53;22.30;99.90
2010;DHT22;1008;47.404;8.502;2022-10-16T09:43:23;23.00;99.90
2010;DHT22;1008;47.404;8.502;2022-10-16T09:45:58;23.40;99.90
2010;DHT22;1008;47.404;8.502;2022-10-16T09:48:28;23.50;99.90
2010;DHT22;1008;47.404;8.502;2022-10-16T09:50:58;23.00;99.90
2010;DHT22;1008;47.404;8.502;2022-10-16T09:53:40;23.20;99.90
2010;DHT22;1008;47.404;8.502;2022-10-16T09:56:09;23.40;99.90
2010;DHT22;1008;47.404;8.502;2022-10-16T09:58:35;23.30;99.90
2010;DHT22;1008;47.404;8.502;2022-10-16T10:01:04;23.50;99.90
2010;DHT22;1008;47.404;8.502;2022-10-16T10:03:35;23.90;99.90
2010;DHT22;1008;47.404;8.502;2022-10-16T10:06:13;24.10;99.90
2010;DHT22;1008;47.404;8.502;2022-10-16T10:08:41;24.60;99.90
2010;DHT22;1008;47.404;8.502;2022-10-16T10:11:08;24.70;99.90
2010;DHT22;1008;47.404;8.502;2022-10-16T10:13:35;24.80;99.90
2010;DHT22;1008;47.404;8.502;2022-10-16T10:16:01;25.10;99.90
2010;DHT22;1008;47.404;8.502;2022-10-16T10:18:30;25.70;99.90
2010;DHT22;1008;47.404;8.502;2022-10-16T10:20:58;25.70;99.90
2010;DHT22;1008;47.404;8.502;2022-10-16T10:23:27;25.70;99.90
2010;DHT22;1008;47.404;8.502;2022-10-16T10:25:59;25.60;99.90
2010;DHT22;1008;47.404;8.502;2022-10-16T10:28:42;25.40;99.90
2010;DHT22;1008;47.404;8.502;2022-10-16T10:31:16;25.90;99.90
2010;DHT22;1008;47.404;8.502;2022-10-16T10:33:51;26.00;98.40
2010;DHT22;1008;47.404;8.502;2022-10-16T10:36:29;26.10;99.40
2010;DHT22;1008;47.404;8.502;2022-10-16T10:38:58;26.60;98.40
2010;DHT22;1008;47.404;8.502;2022-10-16T10:41:51;26.90;97.00
2010;DHT22;1008;47.404;8.502;2022-10-16T10:44:32;26.80;95.40
2010;DHT22;1008;47.404;8.502;2022-10-16T10:47:08;26.80;94.70
2010;DHT22;1008;47.404;8.502;2022-10-16T10:49:48;26.50;94.40
2010;DHT22;1008;47.404;8.502;2022-10-16T10:52:37;26.90;94.40
2010;DHT22;1008;47.404;8.502;2022-10-16T10:55:13;26.40;93.90
2010;DHT22;1008;47.404;8.502;2022-10-16T10:57:54;26.00;95.30
2010;DHT22;1008;47.404;8.502;2022-10-16T11:00:28;25.60;96.20
2010;DHT22;1008;47.404;8.502;2022-10-16T11:03:07;25.40;97.00
2010;DHT22;1008;47.404;8.502;2022-10-16T11:05:42;25.90;96.20
2010;DHT22;1008;47.404;8.502;2022-10-16T11:08:15;26.20;96.70
2010;DHT22;1008;47.404;8.502;2022-10-16T11:10:47;26.50;96.10
2010;DHT22;1008;47.404;8.502;2022-10-16T11:13:30;26.20;95.30
2010;DHT22;1008;47.404;8.502;2022-10-16T11:16:01;25.90;93.70
2010;DHT22;1008;47.404;8.502;2022-10-16T11:18:42;26.20;96.00
2010;DHT22;1008;47.404;8.502;2022-10-16T11:21:15;26.20;94.50
2010;DHT22;1008;47.404;8.502;2022-10-16T11:23:48;26.20;94.60
2010;DHT22;1008;47.404;8.502;2022-10-16T11:26:20;26.60;93.80
2010;DHT22;1008;47.404;8.502;2022-10-16T11:28:49;26.80;93.30
2010;DHT22;1008;47.404;8.502;2022-10-16T11:31:21;26.90;92.10
2010;DHT22;1008;47.404;8.502;2022-10-16T11:33:56;26.90;91.80
2010;DHT22;1008;47.404;8.502;2022-10-16T11:36:32;27.20;92.60
2010;DHT22;1008;47.404;8.502;2022-10-16T11:39:04;27.30;92.80
2010;DHT22;1008;47.404;8.502;2022-10-16T11:41:37;28.00;92.00
2010;DHT22;1008;47.404;8.502;2022-10-16T11:44:20;28.20;90.60
2010;DHT22;1008;47.404;8.502;2022-10-16T11:46:59;27.80;91.20
2010;DHT22;1008;47.404;8.502;2022-10-16T11:49:31;27.80;90.50
2010;DHT22;1008;47.404;8.502;2022-10-16T11:52:05;27.50;90.20
2010;DHT22;1008;47.404;8.502;2022-10-16T11:54:39;27.30;90.60
2010;DHT22;1008;47.404;8.502;2022-10-16T11:57:11;27.30;89.00
2010;DHT22;1008;47.404;8.502;2022-10-16T11:59:43;26.90;88.30
2010;DHT22;1008;47.404;8.502;2022-10-16T12:02:39;27.20;88.00
2010;DHT22;1008;47.404;8.502;2022-10-16T12:05:18;27.60;87.20
2010;DHT22;1008;47.404;8.502;2022-10-16T12:07:52;27.60;87.80
2010;DHT22;1008;47.404;8.502;2022-10-16T12:10:23;26.90;87.60
2010;DHT22;1008;47.404;8.502;2022-10-16T12:12:50;27.30;87.90
2010;DHT22;1008;47.404;8.502;2022-10-16T12:15:23;27.20;86.30
2010;DHT22;1008;47.404;8.502;2022-10-16T12:17:51;27.10;86.60
2010;DHT22;1008;47.404;8.502;2022-10-16T12:20:22;26.80;85.60
2010;DHT22;1008;47.404;8.502;2022-10-16T12:22:54;27.00;84.80
2010;DHT22;1008;47.404;8.502;2022-10-16T12:25:24;27.60;84.40
2010;DHT22;1008;47.404;8.502;2022-10-16T12:27:57;27.70;83.90
2010;DHT22;1008;47.404;8.502;2022-10-16T12:30:26;27.40;83.70
2010;DHT22;1008;47.404;8.502;2022-10-16T12:32:54;27.40;86.80
2010;DHT22;1008;47.404;8.502;2022-10-16T12:35:24;27.70;86.50
2010;DHT22;1008;47.404;8.502;2022-10-16T12:37:53;28.20;83.80
2010;DHT22;1008;47.404;8.502;2022-10-16T12:40:27;27.70;81.10
2010;DHT22;1008;47.404;8.502;2022-10-16T12:42:54;27.70;84.30
2010;DHT22;1008;47.404;8.502;2022-10-16T12:45:26;28.10;83.10
2010;DHT22;1008;47.404;8.502;2022-10-16T12:47:54;27.90;82.80
2010;DHT22;1008;47.404;8.502;2022-10-16T12:50:25;27.80;84.00
2010;DHT22;1008;47.404;8.502;2022-10-16T12:52:54;26.90;84.70
2010;DHT22;1008;47.404;8.502;2022-10-16T12:55:22;26.50;86.30
2010;DHT22;1008;47.404;8.502;2022-10-16T12:58:08;26.30;86.10
2010;DHT22;1008;47.404;8.502;2022-10-16T13:00:43;26.50;86.70
2010;DHT22;1008;47.404;8.502;2022-10-16T13:06:30;26.60;86.20
2010;DHT22;1008;47.404;8.502;2022-10-16T13:09:19;26.30;87.40
2010;DHT22;1008;47.404;8.502;2022-10-16T13:12:11;26.30;88.20
2010;DHT22;1008;47.404;8.502;2022-10-16T13:14:54;26.10;89.30
2010;DHT22;1008;47.404;8.502;2022-10-16T13:17:25;26.00;89.50
2010;DHT22;1008;47.404;8.502;2022-10-16T13:19:59;26.20;90.00
2010;DHT22;1008;47.404;8.502;2022-10-16T13:22:35;26.10;89.90
2010;DHT22;1008;47.404;8.502;2022-10-16T13:25:17;25.80;91.50
2010;DHT22;1008;47.404;8.502;2022-10-16T13:27:51;25.50;93.60
2010;DHT22;1008;47.404;8.502;2022-10-16T13:30:22;25.50;93.60
2010;DHT22;1008;47.404;8.502;2022-10-16T13:32:52;26.00;93.80
2010;DHT22;1008;47.404;8.502;2022-10-16T13:35:23;26.20;93.80
2010;DHT22;1008;47.404;8.502;2022-10-16T13:37:50;26.50;92.90
2010;DHT22;1008;47.404;8.502;2022-10-16T13:40:23;26.20;92.00
2010;DHT22;1008;47.404;8.502;2022-10-16T13:42:51;25.80;92.70
2010;DHT22;1008;47.404;8.502;2022-10-16T13:45:20;25.60;93.10
2010;DHT22;1008;47.404;8.502;2022-10-16T13:47:48;26.00;94.50
2010;DHT22;1008;47.404;8.502;2022-10-16T13:50:16;26.50;93.90
2010;DHT22;1008;47.404;8.502;2022-10-16T13:52:44;26.90;93.40
2010;DHT22;1008;47.404;8.502;2022-10-16T13:55:11;26.90;92.60
2010;DHT22;1008;47.404;8.502;2022-10-16T13:57:40;26.90;92.30
2010;DHT22;1008;47.404;8.502;2022-10-16T14:00:21;27.40;91.70
2010;DHT22;1008;47.404;8.502;2022-10-16T14:02:55;27.50;90.40
2010;DHT22;1008;47.404;8.502;2022-10-16T14:05:23;27.60;91.20
2010;DHT22;1008;47.404;8.502;2022-10-16T14:07:51;27.50;90.50
2010;DHT22;1008;47.404;8.502;2022-10-16T14:10:22;27.70;91.10
2010;DHT22;1008;47.404;8.502;2022-10-16T14:13:02;27.40;90.00
2010;DHT22;1008;47.404;8.502;2022-10-16T14:15:30;27.00;90.90
2010;DHT22;1008;47.404;8.502;2022-10-16T14:17:58;27.00;90.90
2010;DHT22;1008;47.404;8.502;2022-10-16T14:20:27;27.30;90.60
2010;DHT22;1008;47.404;8.502;2022-10-16T14:22:59;27.60;90.20
2010;DHT22;1008;47.404;8.502;2022-10-16T14:25:28;27.70;90.30
2010;DHT22;1008;47.404;8.502;2022-10-16T14:28:01;28.00;90.50
2010;DHT22;1008;47.404;8.502;2022-10-16T14:30:30;27.70;90.80
2010;DHT22;1008;47.404;8.502;2022-10-16T14:32:58;27.80;90.60
2010;DHT22;1008;47.404;8.502;2022-10-16T14:35:28;28.00;90.80
2010;DHT22;1008;47.404;8.502;2022-10-16T14:37:55;28.00;90.10
2010;DHT22;1008;47.404;8.502;2022-10-16T14:40:25;28.00;90.70
2010;DHT22;1008;47.404;8.502;2022-10-16T14:42:52;28.20;90.90
2010;DHT22;1008;47.404;8.502;2022-10-16T14:45:23;27.80;90.30
2010;DHT22;1008;47.404;8.502;2022-10-16T14:47:53;27.30;91.50
2010;DHT22;1008;47.404;8.502;2022-10-16T14:50:21;27.00;92.20
2010;DHT22;1008;47.404;8.502;2022-10-16T14:52:48;26.90;91.90
2010;DHT22;1008;47.404;8.502;2022-10-16T14:55:15;26.30;92.30
2010;DHT22;1008;47.404;8.502;2022-10-16T14:57:43;25.90;93.00
2010;DHT22;1008;47.404;8.502;2022-10-16T15:00:16;25.60;93.30
2010;DHT22;1008;47.404;8.502;2022-10-16T15:02:45;25.50;94.30
2010;DHT22;1008;47.404;8.502;2022-10-16T15:05:15;25.50;94.00
2010;DHT22;1008;47.404;8.502;2022-10-16T15:07:42;25.30;94.60
2010;DHT22;1008;47.404;8.502;2022-10-16T15:10:09;25.10;94.70
2010;DHT22;1008;47.404;8.502;2022-10-16T15:12:36;24.70;95.30
2010;DHT22;1008;47.404;8.502;2022-10-16T15:15:27;24.70;95.80
2010;DHT22;1008;47.404;8.502;2022-10-16T15:17:58;24.70;95.70
2010;DHT22;1008;47.404;8.502;2022-10-16T15:20:27;24.50;96.00
2010;DHT22;1008;47.404;8.502;2022-10-16T15:22:55;24.50;96.20
2010;DHT22;1008;47.404;8.502;2022-10-16T15:25:34;24.50;96.40
2010;DHT22;1008;47.404;8.502;2022-10-16T15:28:02;24.40;96.50
2010;DHT22;1008;47.404;8.502;2022-10-16T15:30:30;24.10;95.30
2010;DHT22;1008;47.404;8.502;2022-10-16T15:32:58;24.00;96.50
2010;DHT22;1008;47.404;8.502;2022-10-16T15:35:25;23.90;96.40
2010;DHT22;1008;47.404;8.502;2022-10-16T15:37:51;23.70;97.30
2010;DHT22;1008;47.404;8.502;2022-10-16T15:40:19;23.70;97.30
2010;DHT22;1008;47.404;8.502;2022-10-16T15:42:48;23.80;97.40
2010;DHT22;1008;47.404;8.502;2022-10-16T15:45:15;23.60;97.00
2010;DHT22;1008;47.404;8.502;2022-10-16T15:47:42;23.70;97.60
2010;DHT22;1008;47.404;8.502;2022-10-16T15:50:11;24.00;98.00
2010;DHT22;1008;47.404;8.502;2022-10-16T15:52:39;23.70;97.80
2010;DHT22;1008;47.404;8.502;2022-10-16T15:55:07;23.90;97.90
2010;DHT22;1008;47.404;8.502;2022-10-16T15:57:33;23.80;98.00
2010;DHT22;1008;47.404;8.502;2022-10-16T16:00:05;24.00;98.90
2010;DHT22;1008;47.404;8.502;2022-10-16T16:02:32;24.10;99.10
2010;DHT22;1008;47.404;8.502;2022-10-16T16:04:58;24.20;99.30
2010;DHT22;1008;47.404;8.502;2022-10-16T16:07:26;24.20;99.90
2010;DHT22;1008;47.404;8.502;2022-10-16T16:09:53;24.20;99.90
2010;DHT22;1008;47.404;8.502;2022-10-16T16:12:20;24.00;99.90
2010;DHT22;1008;47.404;8.502;2022-10-16T16:14:47;24.00;99.90
2010;DHT22;1008;47.404;8.502;2022-10-16T16:17:14;24.10;99.90
2010;DHT22;1008;47.404;8.502;2022-10-16T16:19:41;24.10;99.90
2010;DHT22;1008;47.404;8.502;2022-10-16T16:22:08;24.00;99.90
2010;DHT22;1008;47.404;8.502;2022-10-16T16:24:36;23.80;99.90
2010;DHT22;1008;47.404;8.502;2022-10-16T16:27:03;23.70;99.90